Time;durP1;ratioP1;P1;durP2;ratioP2;P2;SDS_P1;SDS_P2;PMS_P1;PMS_P2;Temp;Humidity;BMP_temperature;BMP_pressure;BME280_temperature;BME280_humidity;BME280_pressure;Samples;Min_cycle;Max_cycle;Signal;HPM_P1;HPM_P2
2024/01/16 00:01:35;;;;;;;;;;;11.30;42.70;;;11.48;46.09;99754.78;5072761;28;20246;-33
2024/01/16 00:04:03;;;;;;;;;;;11.30;42.70;;;11.49;45.65;99766.63;5073286;28;20406;-37
2024/01/16 00:06:31;;;;;;;;;;;11.30;42.80;;;11.49;45.76;99761.59;5072657;28;19925;-37
2024/01/16 00:08:59;;;;;;;;;;;11.30;42.80;;;11.50;45.75;99758.38;5073247;28;19928;-36
2024/01/16 00:11:28;;;;;;;;;;;11.30;42.80;;;11.49;45.69;99761.59;5072608;28;20277;-33
2024/01/16 00:13:56;;;;;;;;;;;11.30;42.80;;;11.48;45.32;99764.84;5073339;28;19931;-33
2024/01/16 00:16:24;;;;;;;;;;;11.30;42.80;;;11.49;45.85;99766.63;5072798;28;19924;-35
2024/01/16 00:18:52;;;;;;;;;;;11.30;42.80;;;11.49;46.36;99767.50;5072600;28;20019;-32
2024/01/16 00:21:20;;;;;;;;;;;11.40;42.90;;;11.48;45.93;99774.84;5072004;28;19925;-33
2024/01/16 00:23:48;;;;;;;;;;;11.30;42.80;;;11.43;45.68;99770.94;5073302;28;19928;-34
2024/01/16 00:26:22;;;;;;;;;;;11.30;42.80;;;11.47;45.76;99783.09;5072754;28;19925;-32
2024/01/16 00:28:51;;;;;;;;;;;11.30;42.80;;;11.49;46.41;99801.75;5072432;28;20012;-33
2024/01/16 00:31:20;;;;;;;;;;;11.30;42.80;;;11.28;45.33;99750.06;5073807;28;20127;-33
2024/01/16 00:33:48;;;;;;;;;;;11.30;42.80;;;11.48;45.69;99799.94;5072951;28;19925;-33
2024/01/16 00:36:16;;;;;;;;;;;11.30;42.80;;;11.49;45.52;99801.75;5072783;28;19930;-35
2024/01/16 00:38:44;;;;;;;;;;;11.40;42.90;;;11.52;46.33;99797.06;5072776;28;20028;-35
2024/01/16 00:41:14;;;;;;;;;;;11.40;42.80;;;11.53;45.55;99793.81;5072023;28;20400;-34
2024/01/16 00:43:42;;;;;;;;;;;11.40;42.80;;;11.51;46.04;99807.78;5075901;28;19924;-36
2024/01/16 00:46:11;;;;;;;;;;;11.40;42.80;;;11.48;45.35;99804.97;5076152;28;20035;-34
2024/01/16 00:48:39;;;;;;;;;;;11.40;42.80;;;11.50;45.95;99813.56;5076773;28;20064;-32
2024/01/16 00:51:07;;;;;;;;;;;11.40;42.70;;;11.51;46.25;99820.34;5075904;28;20015;-32
2024/01/16 00:53:41;;;;;;;;;;;11.40;42.70;;;11.52;45.86;99817.13;5068906;28;19931;-34
2024/01/16 00:56:09;;;;;;;;;;;11.40;42.70;;;11.50;45.71;99808.53;5077054;28;20070;-33
2024/01/16 00:58:37;;;;;;;;;;;11.40;42.70;;;11.50;46.04;99808.53;5068635;28;19924;-32
2024/01/16 01:01:05;;;;;;;;;;;11.40;42.70;;;11.54;45.42;99821.59;5076499;28;19928;-34
2024/01/16 01:03:35;;;;;;;;;;;11.40;42.70;;;11.55;45.62;99827.50;5076540;28;19959;-33
2024/01/16 01:06:03;;;;;;;;;;;11.40;42.80;;;11.51;46.04;99830.38;5076251;28;19924;-34
2024/01/16 01:08:31;;;;;;;;;;;11.30;42.70;;;11.48;46.10;99825.03;5076194;28;19924;-34
2024/01/16 01:10:59;;;;;;;;;;;11.30;42.70;;;11.48;45.85;99830.03;5075874;28;19936;-32
2024/01/16 01:13:27;;;;;;;;;;;11.30;42.80;;;11.45;45.85;99834.69;5075937;28;19924;-34
2024/01/16 01:15:55;;;;;;;;;;;11.30;42.80;;;11.45;45.70;99839.72;5075536;28;20020;-32
2024/01/16 01:18:24;;;;;;;;;;;11.30;42.80;;;11.40;45.54;99830.78;5075636;28;20393;-32
2024/01/16 01:20:52;;;;;;;;;;;11.30;42.90;;;11.40;46.13;99833.28;5075656;28;19931;-35
2024/01/16 01:23:20;;;;;;;;;;;11.30;42.80;;;11.47;45.44;99845.81;5075562;28;20212;-32
2024/01/16 01:25:48;;;;;;;;;;;11.30;42.80;;;11.47;45.75;99849.22;5075338;28;20387;-33
2024/01/16 01:28:16;;;;;;;;;;;11.40;42.80;;;11.47;46.33;99854.25;5075859;28;19925;-32
2024/01/16 01:30:44;;;;;;;;;;;11.30;42.70;;;11.48;46.27;99855.13;5075676;28;20026;-33
2024/01/16 01:33:12;;;;;;;;;;;11.30;42.80;;;11.47;45.66;99858.34;5076460;28;19929;-33
2024/01/16 01:35:41;;;;;;;;;;;11.30;42.70;;;11.50;45.85;99858.72;5087741;28;19924;-37
2024/01/16 01:38:10;;;;;;;;;;;11.40;42.80;;;10.76;45.72;99743.25;5082881;28;20067;-36
2024/01/16 01:40:38;;;;;;;;;;;11.30;42.70;;;11.49;45.88;99841.88;5075495;28;20015;-33
2024/01/16 01:43:20;;;;;;;;;;;11.30;42.70;;;11.47;45.76;99839.19;5079822;28;19974;-35
2024/01/16 01:45:49;;;;;;;;;;;11.40;42.70;;;11.49;45.65;99852.81;5074944;28;20404;-34
2024/01/16 01:48:17;;;;;;;;;;;11.40;42.70;;;11.48;45.18;99851.00;5075520;28;20015;-33
2024/01/16 01:50:45;;;;;;;;;;;11.40;42.70;;;11.48;46.16;99850.13;5075178;28;19924;-35
2024/01/16 01:53:14;;;;;;;;;;;11.40;42.70;;;10.80;45.66;99732.88;5074765;28;20292;-37
2024/01/16 01:55:42;;;;;;;;;;;11.40;42.70;;;11.49;45.36;99842.78;5074798;28;19932;-32
2024/01/16 01:58:10;;;;;;;;;;;11.40;42.70;;;11.48;45.65;99860.16;5074974;28;19928;-34
2024/01/16 02:00:38;;;;;;;;;;;11.40;42.70;;;11.49;46.22;99856.94;5066619;28;19924;-33
2024/01/16 02:03:06;;;;;;;;;;;11.40;42.80;;;11.52;45.33;99859.75;5074940;28;20383;-34
2024/01/16 02:05:34;;;;;;;;;;;11.30;42.70;;;11.52;45.04;99862.28;5074970;28;19928;-33
2024/01/16 02:08:02;;;;;;;;;;;11.40;42.70;;;11.47;45.75;99863.38;5075180;28;19925;-34
2024/01/16 02:10:31;;;;;;;;;;;11.30;42.60;;;11.43;45.62;99856.22;5074243;28;19928;-33
2024/01/16 02:12:59;;;;;;;;;;;11.30;42.60;;;11.50;45.24;99859.63;5075065;28;20340;-36
2024/01/16 02:15:27;;;;;;;;;;;11.40;42.70;;;11.52;45.78;99863.16;5075673;28;19975;-34
2024/01/16 02:17:55;;;;;;;;;;;11.40;42.70;;;11.40;45.76;99856.75;5075820;28;19968;-34
2024/01/16 02:20:23;;;;;;;;;;;11.40;42.70;;;11.46;45.79;99856.56;5075468;28;19947;-33
2024/01/16 02:22:51;;;;;;;;;;;11.30;42.60;;;11.48;45.20;99870.19;5075814;28;19925;-32
2024/01/16 02:25:20;;;;;;;;;;;11.40;42.70;;;11.51;45.49;99865.50;5075014;28;19925;-35
2024/01/16 02:27:48;;;;;;;;;;;11.40;42.70;;;11.47;46.07;99863.38;5076167;28;20323;-37
2024/01/16 02:30:16;;;;;;;;;;;11.30;42.70;;;11.46;45.76;99872.50;5075157;28;20020;-35
2024/01/16 02:32:44;;;;;;;;;;;11.30;42.60;;;11.45;45.41;99875.72;5076281;28;19928;-34
2024/01/16 02:35:12;;;;;;;;;;;11.30;42.70;;;11.47;45.76;99884.34;5076771;28;19924;-33
2024/01/16 02:37:40;;;;;;;;;;;11.30;42.70;;;11.52;45.53;99882.34;5069379;28;19928;-35
2024/01/16 02:40:09;;;;;;;;;;;11.40;42.70;;;11.46;45.69;99882.53;5079290;28;20028;-34
2024/01/16 02:42:38;;;;;;;;;;;11.30;42.60;;;11.48;45.79;99882.72;5075439;28;19972;-35
2024/01/16 02:45:07;;;;;;;;;;;11.30;42.70;;;11.51;46.23;99893.09;5074856;28;19940;-35
2024/01/16 02:47:35;;;;;;;;;;;11.30;42.60;;;11.51;45.31;99890.56;5074131;28;19973;-32
2024/01/16 02:50:05;;;;;;;;;;;11.30;42.60;;;11.48;45.53;99890.25;5074159;28;19924;-33
2024/01/16 02:52:33;;;;;;;;;;;11.30;42.60;;;11.50;45.67;99898.84;5073875;28;20501;-35
2024/01/16 02:55:01;;;;;;;;;;;11.40;42.70;;;11.50;45.90;99893.84;5074019;28;20015;-33
2024/01/16 02:57:29;;;;;;;;;;;11.40;42.60;;;11.51;45.47;99896.50;5073619;28;19928;-34
2024/01/16 02:59:58;;;;;;;;;;;11.40;42.60;;;11.40;45.65;99876.81;5074159;28;19925;-35
2024/01/16 03:02:26;;;;;;;;;;;11.40;42.70;;;11.50;45.51;99896.34;5073751;28;20023;-33
2024/01/16 03:04:54;;;;;;;;;;;11.30;42.60;;;11.50;45.61;99908.88;5074318;28;19924;-34
2024/01/16 03:07:22;;;;;;;;;;;11.40;42.70;;;11.52;45.51;99902.41;5076603;28;20015;-33
2024/01/16 03:09:51;;;;;;;;;;;11.40;42.60;;;11.51;45.86;99900.63;5077293;28;19962;-30
2024/01/16 03:12:18;;;;;;;;;;;11.40;42.60;;;11.51;45.49;99910.66;5078975;28;19950;-36
2024/01/16 03:14:46;;;;;;;;;;;11.40;42.60;;;11.52;45.81;99918.34;5080701;28;20015;-36
2024/01/16 03:17:16;;;;;;;;;;;11.40;42.60;;;11.55;44.85;99912.81;5077850;28;19928;-32
2024/01/16 03:19:44;;;;;;;;;;;11.40;42.50;;;11.54;45.02;99906.00;5076233;28;20450;-33
2024/01/16 03:22:12;;;;;;;;;;;11.40;42.50;;;11.54;46.05;99911.00;5076013;28;20368;-35
2024/01/16 03:24:40;;;;;;;;;;;11.40;42.60;;;11.54;45.48;99906.00;5075679;28;19954;-33
2024/01/16 03:27:08;;;;;;;;;;;11.40;42.60;;;11.53;45.38;99910.13;5074605;28;20022;-32
2024/01/16 03:29:36;;;;;;;;;;;11.40;42.50;;;11.55;45.40;99908.69;5074303;28;19979;-33
2024/01/16 03:32:05;;;;;;;;;;;11.40;42.50;;;11.52;45.44;99907.44;5073593;28;19925;-33
2024/01/16 03:34:34;;;;;;;;;;;11.40;42.60;;;11.51;45.50;99905.63;5073123;28;19924;-35
2024/01/16 03:37:03;;;;;;;;;;;11.40;42.60;;;11.54;45.93;99906.00;5073777;28;20022;-33
2024/01/16 03:39:30;;;;;;;;;;;11.40;42.60;;;11.55;45.75;99907.78;5073476;28;19925;-33
2024/01/16 03:41:58;;;;;;;;;;;11.40;42.60;;;11.53;45.75;99915.13;5073275;28;20019;-34
2024/01/16 03:44:26;;;;;;;;;;;11.40;42.60;;;11.53;45.62;99911.72;5072622;28;19951;-33
2024/01/16 03:46:55;;;;;;;;;;;11.40;42.50;;;11.54;45.57;99913.53;5072597;28;19958;-32
2024/01/16 03:49:22;;;;;;;;;;;11.40;42.50;;;11.58;45.94;99908.13;5072593;28;19928;-32
2024/01/16 03:51:52;;;;;;;;;;;11.40;42.50;;;11.55;45.15;99915.31;5072464;28;19930;-32
2024/01/16 03:54:20;;;;;;;;;;;11.40;42.50;;;11.54;45.47;99913.53;5073147;28;19928;-35
2024/01/16 03:56:48;;;;;;;;;;;11.40;42.50;;;11.53;45.03;99919.25;5072945;28;19931;-34
2024/01/16 03:59:16;;;;;;;;;;;11.40;42.50;;;11.54;44.88;99916.03;5072887;28;19931;-34
2024/01/16 04:01:45;;;;;;;;;;;11.40;42.50;;;11.55;45.51;99913.72;5072205;28;20410;-34
2024/01/16 04:04:13;;;;;;;;;;;11.40;42.50;;;11.52;45.24;99909.94;5074776;28;20035;-31
2024/01/16 04:06:41;;;;;;;;;;;11.40;42.50;;;11.55;45.59;99907.78;5074984;28;19935;-32
2024/01/16 04:09:10;;;;;;;;;;;11.40;42.60;;;11.58;45.40;99918.16;5076364;28;19966;-33
2024/01/16 04:11:38;;;;;;;;;;;11.40;42.50;;;11.55;45.27;99912.81;5073910;28;20346;-33
2024/01/16 04:14:06;;;;;;;;;;;11.40;42.50;;;11.53;45.43;99920.16;5077978;28;20372;-34
2024/01/16 04:16:34;;;;;;;;;;;11.40;42.50;;;11.55;45.85;99917.81;5075428;28;20404;-34
2024/01/16 04:19:02;;;;;;;;;;;11.40;42.50;;;11.57;45.47;99921.41;5075916;28;20368;-34
2024/01/16 04:21:31;;;;;;;;;;;11.40;42.50;;;11.58;45.62;99918.16;5075154;28;19928;-35
2024/01/16 04:23:59;;;;;;;;;;;11.40;42.50;;;11.56;45.36;99924.63;5076301;28;19931;-32
2024/01/16 04:26:28;;;;;;;;;;;11.40;42.50;;;11.57;45.31;99928.94;5077611;28;19976;-32
2024/01/16 04:28:56;;;;;;;;;;;11.40;42.50;;;11.61;45.68;99928.56;5077734;28;19924;-35
2024/01/16 04:31:24;;;;;;;;;;;11.40;42.50;;;11.55;45.92;99910.31;5073994;28;19931;-36
2024/01/16 04:33:51;;;;;;;;;;;11.40;42.40;;;11.57;45.66;99921.41;5074960;28;19931;-33
2024/01/16 04:36:20;;;;;;;;;;;11.40;42.40;;;11.57;45.48;99916.41;5079226;28;20376;-33
2024/01/16 04:38:47;;;;;;;;;;;11.40;42.40;;;11.64;45.30;99913.84;5075179;28;19978;-33
2024/01/16 04:41:18;;;;;;;;;;;11.50;42.50;;;11.61;45.61;99923.53;5074146;28;19978;-32
2024/01/16 04:43:48;;;;;;;;;;;11.50;42.50;;;11.57;45.60;99921.41;5073979;28;19993;-34
2024/01/16 04:46:16;;;;;;;;;;;11.50;42.50;;;11.59;45.23;99909.91;5073416;28;19960;-36
2024/01/16 04:48:44;;;;;;;;;;;11.50;42.50;;;11.63;45.23;99917.97;5073121;28;19924;-37
2024/01/16 04:51:12;;;;;;;;;;;11.50;42.40;;;11.63;45.03;99912.94;5073375;28;19935;-37
2024/01/16 04:53:40;;;;;;;;;;;11.50;42.40;;;11.63;45.23;99922.13;5075540;28;20023;-34
2024/01/16 04:56:08;;;;;;;;;;;11.50;42.40;;;11.58;44.96;99905.63;5073749;28;19939;-39
2024/01/16 04:58:36;;;;;;;;;;;11.50;42.50;;;11.64;44.85;99908.81;5072627;28;19929;-36
2024/01/16 05:01:05;;;;;;;;;;;11.50;42.40;;;11.66;45.00;99917.44;5072927;28;19954;-33
2024/01/16 05:03:33;;;;;;;;;;;11.50;42.40;;;11.66;45.23;99907.38;5072506;28;19924;-32
2024/01/16 05:06:01;;;;;;;;;;;11.50;42.40;;;11.64;45.17;99909.72;5073017;28;19924;-31
2024/01/16 05:08:30;;;;;;;;;;;11.50;42.40;;;11.65;45.69;99910.63;5073182;28;19950;-32
2024/01/16 05:10:59;;;;;;;;;;;11.50;42.40;;;11.67;45.64;99899.16;5072271;28;20299;-32
2024/01/16 05:13:27;;;;;;;;;;;11.50;42.40;;;11.63;44.95;99894.50;5072281;28;19971;-35
2024/01/16 05:15:54;;;;;;;;;;;11.50;42.40;;;11.64;45.30;99898.78;5072614;28;20464;-32
2024/01/16 05:18:24;;;;;;;;;;;11.50;42.40;;;11.63;45.43;99890.34;5072496;28;20208;-33
2024/01/16 05:20:52;;;;;;;;;;;11.50;42.40;;;11.65;45.37;99890.53;5063915;28;19971;-33
2024/01/16 05:23:20;;;;;;;;;;;11.50;42.40;;;11.65;44.93;99881.41;5072416;28;19924;-33
2024/01/16 05:25:49;;;;;;;;;;;11.50;42.40;;;11.64;45.12;99894.66;5071663;28;19934;-33
2024/01/16 05:28:17;;;;;;;;;;;11.50;42.40;;;11.64;45.56;99894.66;5073165;28;19931;-32
2024/01/16 05:30:45;;;;;;;;;;;11.50;42.40;;;11.63;45.30;99886.97;5075164;28;19939;-33
2024/01/16 05:33:13;;;;;;;;;;;11.50;42.40;;;11.64;45.61;99898.78;5076425;28;19925;-32
2024/01/16 05:35:42;;;;;;;;;;;11.50;42.40;;;11.63;45.52;99892.00;5075071;28;19971;-35
2024/01/16 05:38:12;;;;;;;;;;;11.50;42.50;;;11.59;45.92;99889.84;5075580;28;19932;-31
2024/01/16 05:40:40;;;;;;;;;;;11.50;42.50;;;11.64;45.07;99888.75;5075178;28;19925;-32
2024/01/16 05:43:09;;;;;;;;;;;11.50;42.40;;;11.64;44.87;99888.75;5075390;28;19924;-33
2024/01/16 05:48:13;;;;;;;;;;;11.50;42.50;;;11.62;45.32;99890.22;5032045;28;19968;-35
2024/01/16 05:50:42;;;;;;;;;;;11.50;42.50;;;11.64;45.28;99883.72;5033697;28;19925;-35
2024/01/16 05:53:10;;;;;;;;;;;11.50;42.50;;;11.66;44.93;99882.28;5035359;28;19929;-35
2024/01/16 05:55:38;;;;;;;;;;;11.50;42.50;;;11.65;45.47;99885.53;5034326;28;19925;-35
2024/01/16 05:58:06;;;;;;;;;;;11.50;42.50;;;11.63;45.20;99881.97;5034909;28;19929;-34
2024/01/16 06:00:34;;;;;;;;;;;11.50;42.40;;;11.64;45.22;99888.75;5033632;28;20008;-35
2024/01/16 06:03:03;;;;;;;;;;;11.50;42.50;;;11.64;45.63;99883.72;5034174;28;20012;-35
2024/01/16 06:05:30;;;;;;;;;;;11.50;42.40;;;11.66;45.65;99887.31;5034091;28;19951;-35
2024/01/16 06:08:00;;;;;;;;;;;11.50;42.40;;;11.64;44.92;99887.13;5034292;28;20308;-35
2024/01/16 06:10:28;;;;;;;;;;;11.50;42.40;;;11.66;45.06;99887.31;5033347;28;19944;-35
2024/01/16 06:12:55;;;;;;;;;;;11.50;42.40;;;11.68;45.20;99893.41;5034234;28;19929;-35
2024/01/16 06:15:24;;;;;;;;;;;11.50;42.40;;;11.65;44.82;99896.44;5033929;28;20004;-35
2024/01/16 06:17:52;;;;;;;;;;;11.50;42.40;;;11.65;44.78;99896.44;5033780;28;20020;-35
2024/01/16 06:20:20;;;;;;;;;;;11.50;42.40;;;11.66;45.08;99903.25;5033505;28;19925;-35
2024/01/16 06:22:48;;;;;;;;;;;11.50;42.40;;;11.67;45.21;99899.16;5033874;28;20316;-35
2024/01/16 06:25:17;;;;;;;;;;;11.50;42.40;;;11.66;44.80;99898.25;5033716;28;20376;-35
2024/01/16 06:27:45;;;;;;;;;;;11.50;42.40;;;11.66;45.54;99897.34;5034205;28;19929;-35
2024/01/16 06:30:14;;;;;;;;;;;11.50;42.40;;;11.67;44.94;99904.16;5033352;28;19983;-35
2024/01/16 06:32:42;;;;;;;;;;;11.50;42.40;;;11.67;45.74;99900.03;5034016;28;19929;-35
2024/01/16 06:35:10;;;;;;;;;;;11.50;42.40;;;11.71;45.11;99898.75;5033842;28;19971;-35
2024/01/16 06:37:38;;;;;;;;;;;11.50;42.30;;;11.68;45.71;99901.84;5033446;28;20343;-35
2024/01/16 06:40:07;;;;;;;;;;;11.50;42.30;;;11.68;44.97;99905.97;5032499;28;19929;-35
2024/01/16 06:42:36;;;;;;;;;;;11.50;42.30;;;11.68;45.58;99898.44;5033590;28;19925;-35
2024/01/16 06:45:05;;;;;;;;;;;11.50;42.30;;;11.68;45.65;99893.41;5034352;28;20359;-35
2024/01/16 06:47:33;;;;;;;;;;;11.50;42.30;;;11.67;44.64;99895.03;5033841;28;19925;-36
2024/01/16 06:50:01;;;;;;;;;;;11.50;42.40;;;11.68;45.58;99895.91;5035781;28;19971;-35
2024/01/16 06:52:29;;;;;;;;;;;11.50;42.40;;;11.66;44.96;99894.84;5033457;28;20006;-36
2024/01/16 06:54:57;;;;;;;;;;;11.50;42.40;;;11.70;44.98;99890.34;5026297;28;19972;-35
2024/01/16 06:57:25;;;;;;;;;;;11.50;42.30;;;11.70;45.17;99889.44;5034137;28;19971;-35
2024/01/16 06:59:54;;;;;;;;;;;11.50;42.90;;;11.67;45.79;99902.56;5034462;28;19931;-35
2024/01/16 07:02:22;;;;;;;;;;;11.50;42.30;;;11.67;45.09;99895.03;5032902;28;19932;-35
2024/01/16 07:04:50;;;;;;;;;;;11.50;42.30;;;11.67;45.08;99894.13;5033238;28;19933;-36
2024/01/16 07:07:18;;;;;;;;;;;11.50;42.30;;;11.71;45.08;99901.25;5033213;28;19926;-36
2024/01/16 07:09:46;;;;;;;;;;;11.50;42.30;;;11.68;45.44;99903.44;5032677;28;20034;-36
2024/01/16 07:12:14;;;;;;;;;;;11.50;42.30;;;11.67;45.00;99901.66;5032575;28;19935;-36
2024/01/16 07:14:42;;;;;;;;;;;11.50;42.40;;;11.70;45.08;99914.53;5032925;28;20008;-36
2024/01/16 07:17:12;;;;;;;;;;;11.50;42.40;;;11.70;45.58;99917.03;5033249;28;19967;-36
2024/01/16 07:19:40;;;;;;;;;;;11.50;42.30;;;11.68;45.18;99916.00;5032833;28;19925;-36
2024/01/16 07:22:08;;;;;;;;;;;11.50;42.30;;;11.68;45.16;99918.50;5032055;28;20011;-36
2024/01/16 07:24:36;;;;;;;;;;;11.50;42.40;;;11.68;45.40;99916.00;5032710;28;20025;-35
2024/01/16 07:27:04;;;;;;;;;;;11.50;42.30;;;11.68;45.38;99921.00;5032977;28;19967;-36
2024/01/16 07:29:32;;;;;;;;;;;11.50;42.30;;;11.68;45.53;99921.00;5032758;28;19925;-36
2024/01/16 07:32:00;;;;;;;;;;;11.50;42.30;;;11.66;44.81;99923.34;5032060;28;19932;-36
2024/01/16 07:34:29;;;;;;;;;;;11.50;42.30;;;11.68;45.67;99921.91;5032599;28;19976;-35
2024/01/16 07:36:57;;;;;;;;;;;11.50;42.30;;;11.68;45.09;99916.00;5032833;28;19928;-36
2024/01/16 07:39:25;;;;;;;;;;;11.50;42.30;;;11.68;45.33;99931.06;5032900;28;20020;-35
2024/01/16 07:41:53;;;;;;;;;;;11.60;42.40;;;11.67;45.19;99926.75;5031840;28;19925;-35
2024/01/16 07:44:21;;;;;;;;;;;11.50;42.30;;;11.70;45.18;99924.56;5032647;28;19929;-35
2024/01/16 07:46:49;;;;;;;;;;;11.50;42.40;;;11.70;45.39;99929.59;5032383;28;19933;-35
2024/01/16 07:49:17;;;;;;;;;;;11.50;42.30;;;11.69;45.13;99935.34;5032525;28;20312;-36
2024/01/16 07:51:46;;;;;;;;;;;11.50;42.30;;;11.66;45.68;99937.50;5031446;28;19925;-36
2024/01/16 07:54:14;;;;;;;;;;;11.50;42.30;;;11.68;44.90;99936.06;5032534;28;19935;-36
2024/01/16 07:56:42;;;;;;;;;;;11.50;42.30;;;11.69;45.40;99947.91;5032372;28;19979;-35
2024/01/16 07:59:10;;;;;;;;;;;11.50;42.30;;;11.70;45.17;99944.63;5032427;28;19984;-35
2024/01/16 08:01:38;;;;;;;;;;;11.50;42.30;;;11.68;44.90;99946.09;5031595;28;20442;-35
2024/01/16 08:04:06;;;;;;;;;;;11.50;42.30;;;11.68;44.81;99956.16;5032069;28;19931;-36
2024/01/16 08:06:34;;;;;;;;;;;11.50;42.30;;;11.72;44.72;99958.28;5031881;28;19931;-36
2024/01/16 08:09:04;;;;;;;;;;;11.50;42.30;;;11.71;44.68;99951.44;5032074;28;19926;-36
2024/01/16 08:11:34;;;;;;;;;;;11.60;42.40;;;11.71;45.18;99958.97;5031491;28;19925;-36
2024/01/16 08:14:03;;;;;;;;;;;11.60;42.40;;;11.70;45.35;99959.69;5032254;28;19971;-36
2024/01/16 08:16:30;;;;;;;;;;;11.50;42.30;;;11.69;45.45;99957.94;5031976;28;20024;-36
2024/01/16 08:18:58;;;;;;;;;;;11.50;42.30;;;11.69;44.72;99952.91;5032393;28;20012;-36
2024/01/16 08:21:26;;;;;;;;;;;11.50;42.30;;;11.71;45.04;99946.44;5031490;28;20055;-36
2024/01/16 08:23:54;;;;;;;;;;;11.50;42.30;;;11.70;44.75;99949.66;5031833;28;19933;-36
2024/01/16 08:26:24;;;;;;;;;;;11.50;42.30;;;11.70;45.58;99949.66;5032126;28;20347;-36
2024/01/16 08:28:52;;;;;;;;;;;11.50;42.20;;;11.70;45.72;99945.53;5031521;28;19954;-36
2024/01/16 08:31:20;;;;;;;;;;;11.50;42.20;;;11.70;44.98;99954.69;5031167;28;20028;-36
2024/01/16 08:33:48;;;;;;;;;;;11.50;42.20;;;11.66;44.61;99947.53;5031855;28;19926;-36
2024/01/16 08:36:20;;;;;;;;;;;11.50;42.20;;;11.70;45.13;99950.56;5031918;28;19971;-36
2024/01/16 08:38:48;;;;;;;;;;;11.50;42.30;;;11.70;45.54;99957.19;5031775;28;20002;-36
2024/01/16 08:41:16;;;;;;;;;;;11.50;42.30;;;11.68;45.25;99956.16;5031186;28;19925;-35
2024/01/16 08:43:45;;;;;;;;;;;11.50;42.20;;;11.70;44.68;99954.69;5031798;28;19931;-35
2024/01/16 08:46:15;;;;;;;;;;;11.50;42.20;;;11.67;44.90;99956.84;5031896;28;19925;-36
2024/01/16 08:48:42;;;;;;;;;;;11.50;42.30;;;11.66;44.84;99955.06;5031638;28;19925;-36
2024/01/16 08:51:12;;;;;;;;;;;11.50;42.30;;;11.69;45.12;99957.94;5031188;28;20027;-36
2024/01/16 08:53:40;;;;;;;;;;;11.50;42.30;;;11.67;45.25;99959.38;5031319;28;19932;-34
2024/01/16 08:56:08;;;;;;;;;;;11.50;42.30;;;11.69;45.30;99962.97;5031806;28;19983;-34
2024/01/16 08:58:38;;;;;;;;;;;11.50;42.90;;;11.70;45.49;99964.72;5031844;28;20215;-34
2024/01/16 09:01:07;;;;;;;;;;;11.50;42.20;;;11.70;45.57;99964.72;5031061;28;19972;-34
2024/01/16 09:03:35;;;;;;;;;;;11.60;42.40;;;11.66;45.21;99952.56;5032802;28;19979;-34
2024/01/16 09:06:04;;;;;;;;;;;11.60;42.30;;;11.64;44.60;99949.88;5035314;28;19968;-34
2024/01/16 09:08:32;;;;;;;;;;;11.50;42.20;;;11.35;45.29;99898.00;5035330;28;20048;-35
2024/01/16 09:11:00;;;;;;;;;;;11.50;42.20;;;11.68;45.57;99966.19;5034663;28;19933;-36
2024/01/16 09:13:28;;;;;;;;;;;11.50;42.20;;;11.68;45.34;99961.16;5035193;28;19929;-36
2024/01/16 09:15:56;;;;;;;;;;;11.50;42.20;;;11.69;44.87;99963.84;5034746;28;19931;-36
2024/01/16 09:18:25;;;;;;;;;;;11.50;42.30;;;11.65;45.49;99956.69;5037195;28;19975;-36
2024/01/16 09:20:54;;;;;;;;;;;11.50;42.30;;;11.66;44.81;99953.44;5037728;28;20359;-34
2024/01/16 09:23:23;;;;;;;;;;;11.50;42.30;;;11.68;44.65;99963.66;5040510;28;19939;-35
2024/01/16 09:25:51;;;;;;;;;;;11.50;42.30;;;11.67;45.36;99961.88;5039253;28;20388;-36
2024/01/16 09:28:19;;;;;;;;;;;11.50;42.30;;;11.65;45.27;99961.69;5038244;28;20027;-36
2024/01/16 09:30:47;;;;;;;;;;;11.50;42.30;;;11.66;45.63;99965.09;5036755;28;19931;-34
2024/01/16 09:33:16;;;;;;;;;;;11.50;42.30;;;11.64;45.35;99964.00;5036491;28;19947;-34
2024/01/16 09:35:46;;;;;;;;;;;11.50;41.90;;;11.64;45.24;99974.06;5035364;28;20016;-45
2024/01/16 09:38:14;;;;;;;;;;;11.50;42.40;;;11.65;45.01;99975.84;5035732;28;19929;-34
2024/01/16 09:40:42;;;;;;;;;;;11.50;42.30;;;11.63;45.62;99972.28;5034628;28;19956;-37
2024/01/16 09:43:10;;;;;;;;;;;11.50;42.30;;;11.64;45.17;99969.03;5035262;28;20028;-34
2024/01/16 09:45:38;;;;;;;;;;;11.50;42.30;;;11.65;45.11;99970.84;5035523;28;20306;-37
2024/01/16 09:48:07;;;;;;;;;;;11.50;42.30;;;11.65;44.99;99975.84;5034607;28;19929;-36
2024/01/16 09:50:36;;;;;;;;;;;11.50;42.30;;;11.61;44.88;99973.72;5033956;28;20282;-36
2024/01/16 09:53:05;;;;;;;;;;;11.50;42.30;;;11.63;44.91;99979.81;5034691;28;19944;-36
2024/01/16 09:55:33;;;;;;;;;;;11.50;42.40;;;11.65;45.03;99976.75;5034881;28;19925;-36
2024/01/16 09:58:01;;;;;;;;;;;11.50;42.30;;;11.65;45.03;99975.84;5034473;28;20440;-36
2024/01/16 10:00:29;;;;;;;;;;;11.50;42.30;;;11.61;45.08;99973.72;5034452;28;19925;-36
2024/01/16 10:02:58;;;;;;;;;;;11.50;42.30;;;11.61;45.31;99973.72;5034691;28;19929;-36
2024/01/16 10:05:27;;;;;;;;;;;11.50;42.30;;;11.62;44.96;99975.53;5034377;28;19925;-36
2024/01/16 10:07:55;;;;;;;;;;;11.50;42.30;;;11.63;45.10;99978.19;5034078;28;19925;-36
2024/01/16 10:10:28;;;;;;;;;;;11.50;42.30;;;11.60;45.27;99976.94;5033589;28;19979;-36
2024/01/16 10:13:14;;;;;;;;;;;11.50;42.30;;;11.61;44.85;99978.75;5027108;28;19929;-36
2024/01/16 10:15:41;;;;;;;;;;;11.50;42.30;;;11.60;45.61;99976.94;5033993;28;19929;-36
2024/01/16 10:18:24;;;;;;;;;;;11.50;42.30;;;11.64;45.31;99969.03;5034425;28;20368;-36
2024/01/16 10:20:53;;;;;;;;;;;11.50;42.30;;;11.64;44.90;99969.03;5033345;28;19932;-36
2024/01/16 10:23:25;;;;;;;;;;;11.50;42.30;;;11.63;45.69;99969.78;5034230;28;19929;-37
2024/01/16 10:26:13;;;;;;;;;;;11.50;42.30;;;11.61;45.24;99973.72;5034684;28;19979;-36
2024/01/16 10:28:42;;;;;;;;;;;11.50;42.30;;;11.62;44.72;99970.50;5033883;28;19929;-36
2024/01/16 10:31:11;;;;;;;;;;;11.50;42.30;;;11.63;45.45;99969.78;5033187;28;19972;-36
2024/01/16 10:33:40;;;;;;;;;;;11.50;42.30;;;11.61;45.73;99963.69;5033714;28;20407;-36
2024/01/16 10:36:10;;;;;;;;;;;11.50;42.30;;;11.62;45.49;99968.88;5025831;28;19925;-36
2024/01/16 10:38:39;;;;;;;;;;;11.50;42.30;;;11.62;45.07;99965.47;5034013;28;20016;-35
2024/01/16 10:41:09;;;;;;;;;;;11.50;42.20;;;11.63;44.78;99962.25;5025106;28;19925;-36
2024/01/16 10:43:38;;;;;;;;;;;11.50;42.20;;;11.63;45.34;99958.09;5033764;28;20004;-34
2024/01/16 10:46:11;;;;;;;;;;;11.50;42.20;;;11.60;45.43;99957.78;5032983;28;20389;-35
2024/01/16 10:48:40;;;;;;;;;;;11.50;42.20;;;11.59;45.22;99950.97;5033854;28;20393;-35
2024/01/16 10:51:09;;;;;;;;;;;11.50;42.30;;;11.63;45.29;99942.19;5024835;28;19925;-35
2024/01/16 10:53:37;;;;;;;;;;;11.50;42.30;;;11.65;45.29;99950.75;5034675;28;20028;-36
2024/01/16 10:56:05;;;;;;;;;;;11.50;42.20;;;11.63;45.13;99957.25;5033099;28;19932;-35
2024/01/16 10:58:33;;;;;;;;;;;11.50;42.20;;;11.61;45.30;99948.63;5033199;28;20008;-35
2024/01/16 11:01:04;;;;;;;;;;;11.50;42.20;;;11.61;45.05;99948.63;5032217;28;20381;-36
2024/01/16 11:03:36;;;;;;;;;;;11.50;42.20;;;11.60;45.26;99949.34;5033639;28;19933;-35
2024/01/16 11:06:06;;;;;;;;;;;11.50;42.20;;;11.61;44.94;99953.66;5034482;28;19925;-35
2024/01/16 11:08:35;;;;;;;;;;;11.50;42.20;;;11.58;44.77;99950.78;5033874;28;20285;-35
2024/01/16 11:11:04;;;;;;;;;;;11.40;42.20;;;11.59;45.08;99955.06;5032724;28;20455;-35
2024/01/16 11:13:32;;;;;;;;;;;11.50;42.30;;;11.63;45.06;99952.22;5033548;28;20008;-35
2024/01/16 11:16:00;;;;;;;;;;;11.50;42.20;;;11.63;44.86;99952.22;5033268;28;19979;-36
2024/01/16 11:18:31;;;;;;;;;;;11.50;42.10;;;11.64;44.70;99959.00;5033322;28;19932;-36
2024/01/16 11:20:59;;;;;;;;;;;11.50;42.10;;;11.62;44.54;99960.47;5032753;28;20407;-36
2024/01/16 11:23:35;;;;;;;;;;;11.50;42.10;;;11.63;45.10;99952.22;5033303;28;19971;-35
2024/01/16 11:26:27;;;;;;;;;;;11.50;42.10;;;11.65;45.22;99945.75;5032559;28;19948;-36